Time;durP1;ratioP1;P1;durP2;ratioP2;P2;SDS_P1;SDS_P2;PMS_P1;PMS_P2;Temp;Humidity;BMP_temperature;BMP_pressure;BME280_temperature;BME280_humidity;BME280_pressure;Samples;Min_cycle;Max_cycle;Signal;HPM_P1;HPM_P2
2022/02/28 00:01:29;;;;;;;12.48;5.40;;;;;;;-1.54;90.59;97061.22;5050647;28;24426;-74
2022/02/28 00:03:57;;;;;;;10.10;6.88;;;;;;;-1.56;91.13;97052.72;5050984;28;24461;-74
2022/02/28 00:06:24;;;;;;;9.20;6.93;;;;;;;-1.71;92.16;97058.56;5050706;28;24517;-74
2022/02/28 00:08:52;;;;;;;11.32;7.20;;;;;;;-1.77;93.43;97056.88;5050553;28;24419;-74
2022/02/28 00:11:19;;;;;;;7.07;5.53;;;;;;;-1.86;92.16;97061.88;5050194;28;24801;-74
2022/02/28 00:13:45;;;;;;;9.80;6.75;;;;;;;-2.07;92.66;97044.81;5050412;28;24430;-74
2022/02/28 00:16:11;;;;;;;7.65;6.22;;;;;;;-2.06;94.15;97055.81;5050514;28;25111;-74
2022/02/28 00:18:38;;;;;;;8.68;6.78;;;;;;;-1.99;93.87;97044.88;5050403;28;24497;-74
2022/02/28 00:21:04;;;;;;;10.75;7.25;;;;;;;-1.95;92.82;97056.75;5050273;28;24415;-74
2022/02/28 00:23:31;;;;;;;9.15;7.40;;;;;;;-1.99;93.74;97049.94;5050347;28;24473;-74
2022/02/28 00:26:00;;;;;;;12.80;8.27;;;;;;;-1.98;93.61;97049.94;5050335;28;24473;-74
2022/02/28 00:28:26;;;;;;;12.27;7.63;;;;;;;-1.99;92.50;97055.03;5049968;28;24415;-74
2022/02/28 00:30:53;;;;;;;11.18;7.63;;;;;;;-1.98;92.35;97049.94;5050696;28;25018;-74
2022/02/28 00:33:19;;;;;;;9.23;7.05;;;;;;;-1.97;92.98;97046.56;5050452;28;24419;-74
2022/02/28 00:35:46;;;;;;;7.88;6.70;;;;;;;-1.91;92.71;97039.84;5050397;28;24423;-74
2022/02/28 00:38:12;;;;;;;10.30;6.32;;;;;;;-1.73;92.77;97042.50;5050275;28;24455;-74
2022/02/28 00:40:39;;;;;;;8.10;6.95;;;;;;;-1.86;92.63;97041.56;5050144;28;24445;-74
2022/02/28 00:43:06;;;;;;;10.00;6.32;;;;;;;-2.05;93.74;97040.59;5049960;28;24446;-74
2022/02/28 00:45:33;;;;;;;8.02;6.38;;;;;;;-2.07;93.68;97037.19;5050259;28;24473;-74
2022/02/28 00:48:00;;;;;;;10.20;6.78;;;;;;;-2.01;93.85;97034.69;5050110;28;24415;-76
2022/02/28 00:50:26;;;;;;;9.30;6.75;;;;;;;-2.03;94.39;97040.63;5050278;28;24446;-74
2022/02/28 00:52:53;;;;;;;13.63;8.13;;;;;;;-2.02;94.14;97039.78;5050147;28;24839;-74
2022/02/28 00:55:19;;;;;;;10.15;7.13;;;;;;;-2.06;94.55;97035.50;5039113;28;24439;-74
2022/02/28 00:57:46;;;;;;;11.00;7.60;;;;;;;-2.13;94.04;97034.63;5029810;28;24440;-74
2022/02/28 01:00:16;;;;;;;10.50;7.93;;;;;;;-2.41;96.81;97035.22;5030330;28;24486;-74
2022/02/28 01:02:43;;;;;;;11.68;7.85;;;;;;;-2.34;96.89;97039.53;5030309;28;24423;-74
2022/02/28 01:05:10;;;;;;;8.95;6.90;;;;;;;-2.40;98.77;97037.81;5030121;28;24455;-74
2022/02/28 01:07:37;;;;;;;12.07;8.30;;;;;;;-2.21;97.78;97036.25;5029937;28;24455;-74
2022/02/28 01:10:05;;;;;;;14.90;7.53;;;;;;;-2.21;96.57;97034.56;5030165;28;24423;-74
2022/02/28 01:12:31;;;;;;;8.77;6.82;;;;;;;-2.21;93.72;97036.25;5044285;28;24438;-74
2022/02/28 01:14:58;;;;;;;9.50;7.03;;;;;;;-2.36;94.49;97036.13;5049822;28;25035;-74
2022/02/28 01:17:25;;;;;;;8.35;6.45;;;;;;;-2.52;96.43;97036.00;5049895;28;24454;-74
2022/02/28 01:19:52;;;;;;;8.65;6.28;;;;;;;-2.52;97.08;97033.47;5049757;28;24419;-74
2022/02/28 01:22:18;;;;;;;7.28;6.18;;;;;;;-2.49;97.44;97036.00;5041954;28;24435;-74
2022/02/28 01:24:45;;;;;;;10.57;5.87;;;;;;;-2.46;97.53;97033.50;5038004;28;24549;-74
2022/02/28 01:27:11;;;;;;;8.32;6.43;;;;;;;-2.42;96.37;97026.78;5033666;28;24424;-74
2022/02/28 01:29:38;;;;;;;7.45;6.25;;;;;;;-2.40;96.17;97034.41;5033674;28;24420;-74
2022/02/28 01:32:05;;;;;;;6.88;5.72;;;;;;;-2.39;95.88;97031.03;5033697;28;24428;-74
2022/02/28 01:34:33;;;;;;;7.72;6.32;;;;;;;-2.43;95.06;97035.22;5033595;28;24451;-74
2022/02/28 01:36:59;;;;;;;9.00;6.35;;;;;;;-2.49;94.49;97030.94;5033491;28;24477;-74
2022/02/28 01:39:26;;;;;;;12.48;6.70;;;;;;;-2.41;94.23;97033.56;5033053;28;24506;-74
2022/02/28 01:41:52;;;;;;;10.85;7.05;;;;;;;-2.56;93.50;97028.34;5033633;28;24500;-74
2022/02/28 01:44:19;;;;;;;8.55;6.25;;;;;;;-2.80;95.49;97024.75;5033636;28;24423;-74
2022/02/28 01:46:45;;;;;;;7.82;6.53;;;;;;;-2.81;96.24;97024.75;5033327;28;24419;-74
2022/02/28 01:49:12;;;;;;;10.25;6.45;;;;;;;-2.99;97.01;97028.81;5049335;28;24438;-74
2022/02/28 01:51:41;;;;;;;9.38;5.95;;;;;;;-2.92;97.65;97028.03;5033199;28;24422;-74
2022/02/28 01:54:08;;;;;;;11.30;6.53;;;;;;;-2.78;97.42;97025.63;5033157;28;24423;-74
2022/02/28 01:56:35;;;;;;;8.05;6.40;;;;;;;-2.73;96.73;97020.59;5033229;28;24431;-74
2022/02/28 01:59:03;;;;;;;13.02;8.35;;;;;;;-2.62;95.39;97023.25;5032876;28;24501;-74
2022/02/28 02:01:29;;;;;;;14.55;9.27;;;;;;;-2.65;95.36;97016.44;5033129;28;24423;-74
2022/02/28 02:03:56;;;;;;;10.73;9.10;;;;;;;-2.76;96.20;97015.50;5033007;28;24423;-74
2022/02/28 02:06:22;;;;;;;11.25;9.00;;;;;;;-2.83;96.28;97018.81;5033104;28;24482;-74
2022/02/28 02:08:51;;;;;;;15.75;9.05;;;;;;;-2.81;97.03;97015.47;5032625;28;24945;-74
2022/02/28 02:11:19;;;;;;;12.75;7.82;;;;;;;-2.85;96.47;97011.19;5032957;28;24833;-74
2022/02/28 02:13:47;;;;;;;10.73;7.07;;;;;;;-2.94;96.99;97014.47;5032682;28;24949;-74
2022/02/28 02:16:14;;;;;;;10.80;7.20;;;;;;;-3.08;96.94;97017.72;5032658;28;24515;-74
2022/02/28 02:18:40;;;;;;;8.05;6.65;;;;;;;-3.06;98.25;97023.66;5032425;28;24446;-74
2022/02/28 02:21:08;;;;;;;6.90;6.20;;;;;;;-3.01;98.11;97022.00;5032558;28;24428;-74
2022/02/28 02:23:35;;;;;;;8.75;6.45;;;;;;;-2.94;97.28;97018.69;5032842;28;24468;-74
2022/02/28 02:26:01;;;;;;;9.95;6.65;;;;;;;-2.92;95.95;97022.97;5032688;28;24478;-74
2022/02/28 02:28:28;;;;;;;9.60;6.85;;;;;;;-2.95;96.59;97033.06;5032174;28;24976;-74
2022/02/28 02:30:57;;;;;;;10.98;7.03;;;;;;;-3.04;96.94;97032.09;5032391;28;24439;-74
2022/02/28 02:33:25;;;;;;;8.40;6.30;;;;;;;-2.86;93.42;97034.81;5035519;28;24427;-74
2022/02/28 02:35:53;;;;;;;10.32;7.00;;;;;;;-2.92;94.49;97022.97;5051701;28;24986;-74
2022/02/28 02:38:21;;;;;;;8.63;6.47;;;;;;;-3.15;96.34;97026.94;5051921;28;25002;-74
2022/02/28 02:40:48;;;;;;;10.60;6.68;;;;;;;-3.28;97.34;97032.69;5052156;28;24434;-74
2022/02/28 02:43:15;;;;;;;8.23;6.63;;;;;;;-3.34;98.83;97030.09;5052148;28;24458;-74
2022/02/28 02:45:42;;;;;;;9.32;6.93;;;;;;;-3.43;100.00;97031.69;5051963;28;24952;-73
2022/02/28 02:48:13;;;;;;;9.53;7.97;;;;;;;-3.39;100.00;97019.06;5051810;28;24431;-74
2022/02/28 02:50:40;;;;;;;11.37;8.27;;;;;;;-3.33;98.58;97024.22;5052154;28;24427;-74
2022/02/28 02:53:06;;;;;;;12.43;10.02;;;;;;;-3.30;99.41;97014.09;5052125;28;24419;-74
2022/02/28 02:55:34;;;;;;;16.67;9.48;;;;;;;-3.38;100.00;97021.59;5051892;28;24419;-74
2022/02/28 02:58:01;;;;;;;22.30;10.10;;;;;;;-3.40;100.00;97015.69;5051809;28;24419;-74
2022/02/28 03:00:28;;;;;;;36.17;12.02;;;;;;;-3.31;99.97;97018.31;5051752;28;25001;-74
2022/02/28 03:02:55;;;;;;;15.00;11.38;;;;;;;-3.23;98.77;97008.25;5051784;28;24423;-74
2022/02/28 03:05:22;;;;;;;14.23;10.45;;;;;;;-3.58;98.53;97012.94;5051636;28;25022;-74
2022/02/28 03:07:48;;;;;;;12.70;9.27;;;;;;;-4.00;100.00;97021.66;5051613;28;24465;-74
2022/02/28 03:10:15;;;;;;;13.25;9.20;;;;;;;-3.66;100.00;97013.69;5051594;28;24770;-74
2022/02/28 03:12:43;;;;;;;14.43;8.93;;;;;;;-3.51;100.00;97017.25;5051521;28;24419;-74
2022/02/28 03:15:10;;;;;;;10.70;8.20;;;;;;;-3.42;100.00;97014.81;5051399;28;24427;-74
2022/02/28 03:17:36;;;;;;;10.75;8.15;;;;;;;-3.36;100.00;97024.16;5051271;28;24956;-74
2022/02/28 03:20:03;;;;;;;12.80;8.73;;;;;;;-3.54;100.00;97022.25;5051289;28;24820;-74
2022/02/28 03:22:30;;;;;;;13.52;8.77;;;;;;;-3.52;100.00;97020.59;5051366;28;24960;-74
2022/02/28 03:24:56;;;;;;;11.00;8.23;;;;;;;-3.51;100.00;97022.31;5051107;28;24958;-74
2022/02/28 03:27:23;;;;;;;9.23;8.15;;;;;;;-3.63;100.00;97023.00;5051047;28;24419;-74
2022/02/28 03:29:50;;;;;;;12.48;8.75;;;;;;;-3.40;99.95;97025.81;5051055;28;24430;-74
2022/02/28 03:32:17;;;;;;;9.30;7.60;;;;;;;-3.44;100.00;97026.63;5051450;28;24528;-74
2022/02/28 03:34:43;;;;;;;9.20;7.63;;;;;;;-3.59;99.70;97029.81;5051062;28;25026;-74
2022/02/28 03:37:10;;;;;;;8.95;7.88;;;;;;;-3.53;98.96;97023.97;5050100;28;24977;-74
2022/02/28 03:39:36;;;;;;;11.82;8.15;;;;;;;-3.40;96.71;97023.28;5050973;28;24797;-74
2022/02/28 03:42:03;;;;;;;11.75;8.65;;;;;;;-3.34;96.66;97017.41;5051425;28;24419;-74
2022/02/28 03:44:29;;;;;;;12.33;8.63;;;;;;;-3.46;97.85;97018.13;5051014;28;24435;-74
2022/02/28 03:46:57;;;;;;;12.18;8.85;;;;;;;-3.74;98.78;97015.28;5050432;28;24423;-74
2022/02/28 03:49:24;;;;;;;11.68;8.88;;;;;;;-3.77;100.00;97024.50;5051098;28;24489;-74
2022/02/28 03:51:51;;;;;;;13.57;9.17;;;;;;;-3.76;100.00;97026.19;5051154;28;24431;-74
2022/02/28 03:54:17;;;;;;;15.02;8.55;;;;;;;-3.75;100.00;97020.31;5050563;28;25013;-74
2022/02/28 03:56:45;;;;;;;10.85;8.13;;;;;;;-3.79;100.00;97027.00;5050674;28;24424;-74
2022/02/28 03:59:12;;;;;;;8.80;6.73;;;;;;;-3.84;98.79;97018.50;5050665;28;24505;-74
2022/02/28 04:01:39;;;;;;;13.60;6.85;;;;;;;-3.75;96.63;97026.22;5050903;28;24427;-74
2022/02/28 04:04:08;;;;;;;11.55;6.85;;;;;;;-3.72;95.54;97013.59;5050550;28;24940;-74
2022/02/28 04:06:35;;;;;;;11.63;7.30;;;;;;;-4.00;98.30;97019.16;5050489;28;24517;-74
2022/02/28 04:09:04;;;;;;;9.80;7.40;;;;;;;-4.05;99.65;97019.06;5050237;28;24427;-74
2022/02/28 04:11:31;;;;;;;8.80;6.93;;;;;;;-3.96;100.00;97024.25;5050674;28;24486;-73
2022/02/28 04:13:57;;;;;;;10.02;7.25;;;;;;;-3.91;100.00;97024.31;5050728;28;24431;-74
2022/02/28 04:16:24;;;;;;;13.05;8.20;;;;;;;-4.07;100.00;97018.19;5050367;28;24419;-74
2022/02/28 04:18:50;;;;;;;11.15;8.35;;;;;;;-4.01;100.00;97013.19;5050127;28;24439;-74
2022/02/28 04:21:18;;;;;;;13.07;8.38;;;;;;;-3.93;100.00;97028.50;5050315;28;24824;-74
2022/02/28 04:23:46;;;;;;;14.77;8.20;;;;;;;-4.08;100.00;97021.53;5050198;28;24420;-74
2022/02/28 04:26:12;;;;;;;11.63;7.97;;;;;;;-4.05;100.00;97020.75;5050475;28;24419;-74
2022/02/28 04:28:39;;;;;;;9.75;8.05;;;;;;;-4.18;100.00;97020.56;5050224;28;24419;-74
2022/02/28 04:31:05;;;;;;;10.13;7.97;;;;;;;-4.18;100.00;97023.09;5050344;28;24513;-74
2022/02/28 04:33:32;;;;;;;11.48;8.50;;;;;;;-4.17;100.00;97027.31;5050699;28;24438;-74
2022/02/28 04:35:58;;;;;;;18.80;8.50;;;;;;;-4.20;100.00;97027.28;5050134;28;25006;-74
2022/02/28 04:38:26;;;;;;;13.82;8.98;;;;;;;-4.06;99.85;97032.53;5049812;28;24418;-74
2022/02/28 04:40:52;;;;;;;12.17;8.80;;;;;;;-4.28;100.00;97036.44;5050437;28;24427;-74
2022/02/28 04:43:19;;;;;;;15.88;10.63;;;;;;;-4.05;98.58;97033.38;5050425;28;24423;-74
2022/02/28 04:45:45;;;;;;;14.43;10.10;;;;;;;-4.16;100.00;97033.22;5050418;28;24470;-74
2022/02/28 04:48:12;;;;;;;13.77;9.82;;;;;;;-4.03;98.79;97030.06;5050074;28;24793;-74
2022/02/28 04:50:38;;;;;;;13.55;9.57;;;;;;;-4.10;100.00;97025.75;5050032;28;24497;-74
2022/02/28 04:53:05;;;;;;;13.38;10.40;;;;;;;-4.11;100.00;97033.31;5049882;28;24426;-74
2022/02/28 04:55:34;;;;;;;13.35;10.02;;;;;;;-4.17;100.00;97034.91;5050329;28;24427;-74
2022/02/28 04:58:01;;;;;;;11.48;9.02;;;;;;;-4.17;100.00;97032.38;5051266;28;24465;-74
2022/02/28 05:00:27;;;;;;;12.68;9.25;;;;;;;-4.30;100.00;97037.22;5054228;28;24458;-74
2022/02/28 05:02:54;;;;;;;11.60;8.40;;;;;;;-4.22;100.00;97036.53;5054061;28;24952;-74
2022/02/28 05:05:21;;;;;;;11.18;8.73;;;;;;;-4.22;100.00;97039.06;5054248;28;24415;-74
2022/02/28 05:07:48;;;;;;;12.55;8.73;;;;;;;-4.18;100.00;97043.34;5053709;28;24944;-74
2022/02/28 05:10:14;;;;;;;10.50;8.43;;;;;;;-4.06;100.00;97032.53;5054165;28;24423;-74
2022/02/28 05:12:42;;;;;;;10.47;7.97;;;;;;;-3.91;94.74;97040.34;5054134;28;24796;-74
2022/02/28 05:15:09;;;;;;;9.25;7.60;;;;;;;-4.10;97.02;97025.75;5054007;28;24948;-74
2022/02/28 05:17:36;;;;;;;11.10;8.05;;;;;;;-4.36;99.13;97040.53;5053671;28;24792;-74
2022/02/28 05:20:02;;;;;;;11.10;7.90;;;;;;;-4.09;99.67;97032.50;5053781;28;24488;-74
2022/02/28 05:22:29;;;;;;;10.45;8.82;;;;;;;-4.24;100.00;97042.38;5053563;28;25185;-73
2022/02/28 05:24:55;;;;;;;11.23;8.52;;;;;;;-4.40;100.00;97041.31;5053733;28;24465;-73
2022/02/28 05:27:22;;;;;;;14.70;9.70;;;;;;;-4.39;100.00;97041.31;5053629;28;24468;-73
2022/02/28 05:29:50;;;;;;;11.05;9.75;;;;;;;-4.45;100.00;97038.72;5053598;28;24427;-73
2022/02/28 05:32:17;;;;;;;12.70;10.32;;;;;;;-4.48;100.00;97033.59;5053534;28;24754;-73
2022/02/28 05:34:44;;;;;;;16.75;10.30;;;;;;;-4.43;100.00;97036.19;5053424;28;24419;-74
2022/02/28 05:37:10;;;;;;;14.18;10.60;;;;;;;-4.53;100.00;97031.81;5053325;28;24426;-74
2022/02/28 05:39:36;;;;;;;15.32;10.50;;;;;;;-4.55;100.00;97041.91;5053380;28;24443;-73
2022/02/28 05:42:03;;;;;;;15.73;10.25;;;;;;;-4.54;100.00;97050.34;5053513;28;24480;-76
2022/02/28 05:44:30;;;;;;;17.30;10.20;;;;;;;-4.46;100.00;97051.31;5053330;28;24789;-75
2022/02/28 05:46:57;;;;;;;14.98;10.23;;;;;;;-4.42;100.00;97045.47;5053190;28;24419;-76
2022/02/28 05:49:24;;;;;;;12.27;9.95;;;;;;;-4.34;100.00;97053.19;5053153;28;24453;-74
2022/02/28 05:51:50;;;;;;;10.17;8.90;;;;;;;-4.33;100.00;97053.22;5052986;28;25026;-74
2022/02/28 05:54:17;;;;;;;14.13;9.43;;;;;;;-4.37;100.00;97051.47;5052880;28;24423;-74
2022/02/28 05:56:43;;;;;;;12.60;9.18;;;;;;;-4.43;100.00;97057.28;5052628;28;24948;-74
2022/02/28 05:59:10;;;;;;;12.57;9.07;;;;;;;-4.28;100.00;97063.41;5052291;28;24459;-74
2022/02/28 06:01:37;;;;;;;10.25;8.40;;;;;;;-4.24;100.00;97062.63;5052814;28;24427;-73
2022/02/28 06:04:08;;;;;;;13.27;8.87;;;;;;;-4.21;100.00;97066.06;5051109;28;24472;-73
2022/02/28 06:06:34;;;;;;;12.27;9.05;;;;;;;-4.15;100.00;97071.22;5033026;28;24432;-74
2022/02/28 06:09:03;;;;;;;11.75;8.95;;;;;;;-4.14;100.00;97067.84;5032060;28;24481;-74
2022/02/28 06:11:30;;;;;;;12.15;9.55;;;;;;;-4.11;100.00;97069.59;5032699;28;24454;-73
2022/02/28 06:13:56;;;;;;;13.80;9.50;;;;;;;-4.17;100.00;97064.41;5033199;28;24424;-74
2022/02/28 06:16:23;;;;;;;15.73;9.18;;;;;;;-4.26;100.00;97070.19;5033358;28;24424;-74
2022/02/28 06:18:50;;;;;;;16.40;9.95;;;;;;;-4.29;100.00;97072.69;5033337;28;24980;-73
2022/02/28 06:21:18;;;;;;;13.65;10.50;;;;;;;-4.34;100.00;97070.88;5033249;28;24440;-74
2022/02/28 06:23:44;;;;;;;13.70;10.20;;;;;;;-4.36;100.00;97063.28;5033534;28;24474;-73
2022/02/28 06:26:11;;;;;;;17.55;10.55;;;;;;;-4.32;100.00;97065.03;5033030;28;24434;-76
2022/02/28 06:28:37;;;;;;;15.48;10.30;;;;;;;-4.29;100.00;97065.09;5032661;28;24427;-75
2022/02/28 06:31:04;;;;;;;13.77;10.20;;;;;;;-4.10;100.00;97067.91;5072179;23;25027;-76
2022/02/28 06:33:31;;;;;;;11.80;10.02;;;;;;;-3.95;99.76;97074.03;5033221;28;24427;-76
2022/02/28 06:35:58;;;;;;;15.05;9.63;;;;;;;-3.82;99.98;97071.66;5032601;28;24912;-76
2022/02/28 06:38:26;;;;;;;13.07;9.45;;;;;;;-3.66;99.66;97066.00;5032866;28;25047;-77
2022/02/28 06:40:53;;;;;;;14.27;10.18;;;;;;;-3.51;98.53;97057.75;5042820;28;24451;-76
2022/02/28 06:43:21;;;;;;;11.73;9.13;;;;;;;-3.37;97.76;97056.25;5052872;28;25014;-76
2022/02/28 06:45:49;;;;;;;13.57;9.32;;;;;;;-3.20;96.48;97064.03;5053401;28;24520;-76
2022/02/28 06:48:15;;;;;;;17.13;9.73;;;;;;;-3.20;96.48;97066.56;5053117;28;24427;-75
2022/02/28 06:50:42;;;;;;;18.20;9.80;;;;;;;-3.15;96.74;97067.50;5052940;28;24500;-76
2022/02/28 06:53:09;;;;;;;12.57;10.15;;;;;;;-3.27;97.75;97073.25;5052783;28;24419;-76
2022/02/28 06:55:40;;;;;;;13.43;9.73;;;;;;;-3.33;99.52;97074.88;5052514;28;24497;-75
2022/02/28 06:58:07;;;;;;;18.05;10.30;;;;;;;-3.27;100.00;97073.25;5051773;28;24476;-75
2022/02/28 07:00:34;;;;;;;15.93;10.52;;;;;;;-3.23;100.00;97072.44;5052007;28;25029;-73
2022/02/28 07:03:00;;;;;;;15.93;10.23;;;;;;;-3.18;100.00;97077.59;5052148;28;24963;-72
2022/02/28 07:05:27;;;;;;;18.90;10.20;;;;;;;-3.07;100.00;97075.19;5051833;28;24423;-73
2022/02/28 07:07:53;;;;;;;16.80;10.55;;;;;;;-2.92;100.00;97076.19;5051664;28;24415;-73
2022/02/28 07:10:21;;;;;;;17.95;10.63;;;;;;;-2.76;100.00;97073.81;5051536;28;24465;-73
2022/02/28 07:12:49;;;;;;;14.98;10.07;;;;;;;-2.54;100.00;97075.72;5051613;28;24809;-73
2022/02/28 07:15:16;;;;;;;18.08;9.90;;;;;;;-2.25;100.00;97070.06;5051700;28;24477;-73
2022/02/28 07:17:42;;;;;;;13.48;9.23;;;;;;;-2.20;96.64;97064.16;5051776;28;24439;-73
2022/02/28 07:20:10;;;;;;;10.85;8.43;;;;;;;-2.01;98.11;97064.31;5051559;28;24455;-72
2022/02/28 07:22:37;;;;;;;12.95;8.77;;;;;;;-1.75;97.15;97072.09;5050239;28;24449;-74
2022/02/28 07:25:04;;;;;;;9.98;8.25;;;;;;;-1.53;96.56;97065.44;5051582;28;24431;-72
2022/02/28 07:27:31;;;;;;;13.27;8.20;;;;;;;-1.27;94.97;97070.66;5051051;28;24439;-73
2022/02/28 07:29:59;;;;;;;12.60;8.20;;;;;;;-1.02;95.00;97069.06;5050597;28;24488;-74
2022/02/28 07:32:25;;;;;;;12.13;8.50;;;;;;;-1.02;91.50;97069.91;5051582;28;24781;-73
2022/02/28 07:34:51;;;;;;;14.40;8.35;;;;;;;-1.20;92.06;97069.84;5050243;28;24497;-74
2022/02/28 07:37:18;;;;;;;10.65;8.10;;;;;;;-1.19;92.27;97069.00;5050798;28;24960;-73
2022/02/28 07:39:44;;;;;;;10.70;8.45;;;;;;;-0.95;91.75;97073.34;5049517;28;24992;-75
2022/02/28 07:42:11;;;;;;;13.07;8.30;;;;;;;-1.17;90.93;97072.41;5050991;28;24561;-73
2022/02/28 07:44:37;;;;;;;10.60;8.43;;;;;;;-1.24;92.17;97071.53;5050483;28;24442;-73
2022/02/28 07:47:07;;;;;;;14.23;8.90;;;;;;;-1.11;92.45;97071.56;5050383;28;25006;-73
2022/02/28 07:49:35;;;;;;;13.48;8.93;;;;;;;-1.09;92.30;97074.97;5050877;28;24898;-73
2022/02/28 07:52:02;;;;;;;12.80;8.45;;;;;;;-0.85;91.49;97075.06;5050594;28;24959;-73
2022/02/28 07:54:28;;;;;;;12.05;8.77;;;;;;;-0.62;91.23;97082.75;5050985;28;24470;-73
2022/02/28 07:56:55;;;;;;;12.80;9.13;;;;;;;-0.49;89.19;97081.06;5050581;28;24995;-75
2022/02/28 07:59:21;;;;;;;14.27;10.10;;;;;;;-0.25;88.97;97088.72;5050544;28;25019;-73
2022/02/28 08:01:48;;;;;;;11.13;9.25;;;;;;;0.20;87.61;97084.47;5050446;28;24999;-72
2022/02/28 08:04:15;;;;;;;12.70;10.00;;;;;;;0.36;83.49;97089.53;5051258;28;24477;-72
2022/02/28 08:06:42;;;;;;;17.77;9.93;;;;;;;0.23;83.65;97086.19;5050816;28;24416;-71
2022/02/28 08:09:09;;;;;;;11.32;9.13;;;;;;;0.38;83.52;97095.50;5050543;28;24991;-71
2022/02/28 08:11:36;;;;;;;11.35;9.00;;;;;;;0.30;82.70;97095.53;5050376;28;24493;-71
2022/02/28 08:14:03;;;;;;;12.68;8.95;;;;;;;0.32;82.34;97090.41;5050932;28;24518;-72
2022/02/28 08:16:29;;;;;;;12.50;9.03;;;;;;;0.33;84.06;97095.50;5050308;28;24431;-73
2022/02/28 08:18:56;;;;;;;12.40;9.50;;;;;;;0.34;85.11;97093.81;5050478;28;24464;-71
2022/02/28 08:21:24;;;;;;;11.10;9.60;;;;;;;0.85;85.82;97091.97;5050663;28;24472;-72
2022/02/28 08:23:50;;;;;;;14.10;8.98;;;;;;;1.38;83.09;97091.75;5050858;28;24419;-72
2022/02/28 08:26:17;;;;;;;10.23;8.70;;;;;;;1.88;77.83;97093.09;5050468;28;24510;-73
2022/02/28 08:28:43;;;;;;;12.20;9.57;;;;;;;1.86;73.69;97089.72;5050264;28;24447;-74
2022/02/28 08:31:10;;;;;;;14.80;9.00;;;;;;;1.79;77.37;97095.75;5033466;28;24793;-73
2022/02/28 08:33:36;;;;;;;10.68;9.25;;;;;;;2.23;75.62;97097.09;5049846;28;25101;-73
2022/02/28 08:36:03;;;;;;;10.52;8.27;;;;;;;2.50;71.91;97095.16;5049946;28;24489;-73
2022/02/28 08:38:31;;;;;;;12.73;9.02;;;;;;;2.86;70.57;97104.16;5049941;28;24867;-73
2022/02/28 08:40:57;;;;;;;12.07;8.52;;;;;;;3.14;69.48;97099.53;5041805;28;24856;-74
2022/02/28 08:43:24;;;;;;;12.63;9.57;;;;;;;3.31;66.93;97099.34;5049279;28;24527;-72
2022/02/28 08:45:50;;;;;;;10.40;7.53;;;;;;;3.00;67.52;97098.84;5050264;28;24440;-71
2022/02/28 08:48:17;;;;;;;14.77;9.45;;;;;;;2.88;68.88;97089.63;5049862;28;24980;-71
2022/02/28 08:50:43;;;;;;;11.18;9.13;;;;;;;3.10;67.86;97085.94;5049576;28;24432;-71
2022/02/28 08:53:09;;;;;;;10.43;9.05;;;;;;;3.07;68.03;97088.53;5050029;28;24440;-70
2022/02/28 08:55:37;;;;;;;12.25;9.13;;;;;;;3.44;70.66;97093.19;5049852;28;24424;-71
2022/02/28 08:58:04;;;;;;;10.50;8.65;;;;;;;3.76;67.56;97089.31;5049996;28;24439;-70
2022/02/28 09:00:30;;;;;;;12.73;9.05;;;;;;;3.70;67.92;97086.84;5049939;28;24451;-70
2022/02/28 09:02:57;;;;;;;12.35;9.20;;;;;;;3.91;67.96;97103.63;5050057;28;24493;-68
2022/02/28 09:05:23;;;;;;;14.23;9.88;;;;;;;4.40;68.34;97102.81;5049809;28;24431;-70
2022/02/28 09:07:50;;;;;;;9.88;8.88;;;;;;;4.68;66.34;97100.63;5049711;28;24501;-70
2022/02/28 09:10:18;;;;;;;12.48;9.27;;;;;;;4.64;65.40;97099.00;5048843;28;24443;-70
2022/02/28 09:12:46;;;;;;;12.07;9.10;;;;;;;4.85;63.68;97103.72;5050139;28;24449;-70
2022/02/28 09:15:12;;;;;;;12.48;9.25;;;;;;;4.96;62.44;97101.78;5048139;28;24446;-72
2022/02/28 09:17:38;;;;;;;11.85;9.48;;;;;;;4.92;61.43;97099.31;5049710;28;24419;-72
2022/02/28 09:20:07;;;;;;;10.35;8.95;;;;;;;5.08;63.01;97096.44;5049997;28;24439;-72
2022/02/28 09:22:34;;;;;;;15.82;9.25;;;;;;;5.40;64.72;97094.91;5050600;28;24430;-71
2022/02/28 09:25:01;;;;;;;11.95;9.10;;;;;;;5.69;63.47;97090.88;5050751;28;24786;-71
2022/02/28 09:27:28;;;;;;;9.80;8.35;;;;;;;5.68;61.50;97089.19;5049335;28;24520;-71
2022/02/28 09:29:55;;;;;;;9.40;7.70;;;;;;;6.14;59.22;97093.28;5049280;28;24497;-72
2022/02/28 09:32:22;;;;;;;10.15;7.75;;;;;;;6.31;61.58;97091.16;5049696;28;24434;-72
2022/02/28 09:34:48;;;;;;;12.82;7.78;;;;;;;5.96;57.66;97092.84;5049713;28;24411;-72
2022/02/28 09:37:15;;;;;;;12.82;7.60;;;;;;;5.74;59.59;97092.44;5049808;28;24436;-72
2022/02/28 09:39:41;;;;;;;12.15;8.05;;;;;;;5.74;57.50;97091.59;5049447;28;24442;-72
2022/02/28 09:42:08;;;;;;;12.88;8.35;;;;;;;5.86;57.97;97099.06;5049867;28;24451;-70
2022/02/28 09:44:35;;;;;;;9.88;8.50;;;;;;;6.07;59.51;97092.59;5050048;28;24995;-70
2022/02/28 09:47:04;;;;;;;11.15;7.60;;;;;;;6.18;56.66;97102.63;5052955;28;24438;-71
2022/02/28 09:49:30;;;;;;;10.30;7.00;;;;;;;6.14;56.26;97098.44;5053206;28;24565;-72
2022/02/28 09:51:57;;;;;;;17.05;7.47;;;;;;;6.02;56.14;97102.97;5053506;28;24425;-72
2022/02/28 09:54:23;;;;;;;10.68;7.72;;;;;;;6.11;57.59;97103.63;5052881;28;24441;-72
2022/02/28 09:56:50;;;;;;;13.65;8.18;;;;;;;6.07;58.66;97102.88;5052222;28;25029;-72
2022/02/28 09:59:18;;;;;;;15.65;8.50;;;;;;;6.04;58.61;97102.94;5052085;28;24481;-72
2022/02/28 10:01:45;;;;;;;10.93;7.85;;;;;;;6.00;58.56;97107.31;5052956;28;24463;-73
2022/02/28 10:04:14;;;;;;;12.73;8.37;;;;;;;6.10;60.41;97102.81;5052964;28;24534;-72
2022/02/28 10:06:42;;;;;;;13.95;7.95;;;;;;;6.12;58.23;97101.06;5052669;28;24466;-72
2022/02/28 10:09:09;;;;;;;11.55;7.88;;;;;;;6.25;60.38;97101.59;5052689;28;24855;-72
2022/02/28 10:11:39;;;;;;;9.63;6.88;;;;;;;6.28;53.38;97104.94;5052235;28;24901;-72
2022/02/28 10:14:08;;;;;;;13.90;8.90;;;;;;;6.35;58.67;97105.63;5040618;28;24948;-72
2022/02/28 10:16:36;;;;;;;10.73;7.63;;;;;;;6.35;55.35;97108.22;5043034;28;24841;-71
2022/02/28 10:19:05;;;;;;;10.17;7.87;;;;;;;6.18;56.66;97106.03;5039802;28;24805;-72
2022/02/28 10:21:39;;;;;;;12.93;8.37;;;;;;;6.25;58.08;97107.56;5048097;28;24548;-70
2022/02/28 10:24:08;;;;;;;9.70;7.55;;;;;;;6.29;56.58;97110.91;5034078;28;24423;-72
2022/02/28 10:26:43;;;;;;;12.23;7.60;;;;;;;6.24;53.25;97110.19;5049010;28;24559;-73
2022/02/28 10:29:11;;;;;;;8.13;6.82;;;;;;;6.51;52.11;97109.50;5036844;28;24862;-72
2022/02/28 10:31:40;;;;;;;8.23;6.68;;;;;;;6.78;51.29;97107.94;5042510;28;24976;-72
2022/02/28 10:34:15;;;;;;;9.32;7.20;;;;;;;6.62;52.16;97109.22;5038155;28;24444;-72
2022/02/28 10:36:46;;;;;;;10.20;7.38;;;;;;;6.85;52.95;97107.78;5042191;28;24443;-71
2022/02/28 10:39:13;;;;;;;10.37;7.30;;;;;;;6.99;53.60;97108.25;5047883;28;24485;-72
2022/02/28 10:41:41;;;;;;;7.72;6.70;;;;;;;6.89;55.43;97102.50;5043612;28;24510;-71
2022/02/28 10:44:10;;;;;;;6.90;6.13;;;;;;;6.87;51.27;97104.28;5052520;28;24504;-72
2022/02/28 10:46:42;;;;;;;7.97;6.40;;;;;;;7.05;53.05;97095.22;5052563;28;24522;-71
2022/02/28 10:49:15;;;;;;;10.95;6.60;;;;;;;6.98;48.13;97094.53;5047192;28;24490;-71
2022/02/28 10:51:48;;;;;;;10.35;6.75;;;;;;;7.08;47.04;97096.84;5040747;28;25037;-71
2022/02/28 10:54:21;;;;;;;10.10;7.15;;;;;;;7.14;49.17;97094.13;5041028;28;24436;-72
2022/02/28 10:57:00;;;;;;;8.32;6.35;;;;;;;7.38;47.26;97097.72;5039101;28;24435;-73
2022/02/28 10:59:28;;;;;;;10.40;6.53;;;;;;;7.22;47.90;97089.59;5035367;28;24518;-73
2022/02/28 11:01:56;;;;;;;8.00;6.38;;;;;;;7.33;48.11;97089.28;5044423;28;24513;-74
2022/02/28 11:04:33;;;;;;;12.30;6.50;;;;;;;7.30;47.47;97090.19;5051535;28;24439;-72
2022/02/28 11:07:01;;;;;;;9.38;6.30;;;;;;;7.35;48.15;97082.38;5051452;28;24434;-72
2022/02/28 11:09:34;;;;;;;10.07;6.90;;;;;;;7.57;51.07;97088.56;5051587;28;24481;-73
2022/02/28 11:12:33;;;;;;;9.37;6.60;;;;;;;7.62;49.01;97083.28;5051508;28;24512;-72
2022/02/28 11:15:01;;;;;;;8.02;6.32;;;;;;;7.45;48.24;97074.31;5051624;28;24431;-72
2022/02/28 11:17:30;;;;;;;8.80;6.95;;;;;;;7.49;51.19;97073.34;5050987;28;24439;-73
2022/02/28 11:19:59;;;;;;;11.02;6.60;;;;;;;7.47;50.31;97082.00;5051406;28;25014;-72
2022/02/28 11:22:28;;;;;;;7.05;6.32;;;;;;;7.51;50.74;97075.84;5050025;28;25463;-73
2022/02/28 11:24:54;;;;;;;15.18;7.13;;;;;;;7.48;51.02;97078.50;5050826;28;24465;-74
2022/02/28 11:27:22;;;;;;;8.07;6.20;;;;;;;7.13;46.93;97069.25;5050742;28;24560;-75